createdAt,value
2018-04-30T00:00:54.827Z,64.95
2018-04-30T00:03:20.793Z,65.14
2018-04-30T00:05:46.734Z,65.26
2018-04-30T00:08:12.668Z,65.14
2018-04-30T00:10:38.612Z,64.99
2018-04-30T00:13:04.592Z,65.96
2018-04-30T00:15:30.516Z,65.26
2018-04-30T00:17:56.458Z,65.18
2018-04-30T00:20:22.377Z,64.98
2018-04-30T00:22:48.317Z,65.01
2018-04-30T00:25:14.242Z,65.28
2018-04-30T00:27:40.200Z,64.89
2018-04-30T00:30:06.152Z,64.85
2018-04-30T00:32:32.089Z,65.61
2018-04-30T00:34:58.017Z,65.92
2018-04-30T00:37:23.974Z,65.42
2018-04-30T00:39:49.899Z,66.28
2018-04-30T00:42:15.861Z,67.67
2018-04-30T00:44:41.811Z,67.29
2018-04-30T00:47:07.761Z,67.80
2018-04-30T00:49:33.681Z,67.22
2018-04-30T00:51:59.612Z,66.23
2018-04-30T00:54:25.585Z,65.69
2018-04-30T00:56:51.553Z,65.28
2018-04-30T00:59:17.503Z,66.34
2018-04-30T01:01:43.445Z,65.86
2018-04-30T01:04:09.400Z,67.13
2018-04-30T01:06:35.324Z,66.86
2018-04-30T01:09:01.262Z,68.06
2018-04-30T01:11:27.189Z,65.55
2018-04-30T01:13:53.124Z,65.00
2018-04-30T01:16:19.042Z,65.72
2018-04-30T01:18:44.986Z,65.43
2018-04-30T01:21:10.942Z,65.83
2018-04-30T01:23:42.900Z,66.03
2018-04-30T01:26:08.837Z,65.45
2018-04-30T01:28:34.824Z,65.05
2018-04-30T01:31:00.768Z,65.89
2018-04-30T01:33:26.713Z,65.35
2018-04-30T01:35:52.641Z,65.12
2018-04-30T01:38:18.583Z,64.91
2018-04-30T01:40:44.522Z,65.03
2018-04-30T01:43:10.480Z,65.31
2018-04-30T01:45:36.438Z,64.30
2018-04-30T01:48:02.399Z,62.99
2018-04-30T01:50:28.323Z,63.92
2018-04-30T01:52:54.365Z,62.77
2018-04-30T01:55:20.295Z,62.36
2018-04-30T01:57:46.233Z,62.14
2018-04-30T02:00:12.152Z,61.91
2018-04-30T02:02:38.107Z,61.43
2018-04-30T02:05:04.088Z,61.29
2018-04-30T02:07:30.041Z,60.98
2018-04-30T02:09:55.979Z,60.76
2018-04-30T02:12:21.920Z,60.44
2018-04-30T02:14:47.864Z,60.14
2018-04-30T02:17:13.816Z,60.77
2018-04-30T02:19:39.757Z,60.81
2018-04-30T02:22:05.709Z,60.27
2018-04-30T02:24:31.652Z,60.15
2018-04-30T02:26:57.580Z,60.71
2018-04-30T02:29:23.523Z,60.37
2018-04-30T02:31:49.479Z,60.46
2018-04-30T02:34:15.419Z,60.72
2018-04-30T02:36:41.372Z,60.14
2018-04-30T02:39:07.305Z,60.00
2018-04-30T02:41:33.251Z,60.02
2018-04-30T02:43:59.214Z,60.17
2018-04-30T02:46:25.154Z,60.26
2018-04-30T02:48:51.090Z,60.02
2018-04-30T02:51:17.041Z,60.40
2018-04-30T02:53:43.043Z,60.31
2018-04-30T02:56:09.013Z,60.20
2018-04-30T02:58:34.969Z,59.89
2018-04-30T03:01:00.897Z,59.92
2018-04-30T03:03:26.838Z,59.76
2018-04-30T03:05:52.782Z,59.92
2018-04-30T03:08:18.727Z,60.01
2018-04-30T03:10:44.648Z,60.18
2018-04-30T03:13:10.598Z,59.79
2018-04-30T03:15:36.522Z,59.46
2018-04-30T03:18:02.467Z,59.88
2018-04-30T03:20:28.389Z,59.96
2018-04-30T03:22:54.329Z,59.41
2018-04-30T03:25:20.253Z,59.09
2018-04-30T03:27:46.177Z,59.07
2018-04-30T03:30:12.095Z,59.07
2018-04-30T03:32:38.045Z,59.04
2018-04-30T03:35:03.976Z,59.07
2018-04-30T03:37:29.914Z,59.46
2018-04-30T03:39:55.864Z,59.32
2018-04-30T03:42:21.813Z,59.08
2018-04-30T03:44:47.752Z,59.22
2018-04-30T03:47:13.695Z,59.29
2018-04-30T03:49:39.624Z,59.66
2018-04-30T03:52:05.540Z,60.34
2018-04-30T03:54:31.489Z,59.52
2018-04-30T03:56:57.436Z,59.39
2018-04-30T03:59:23.382Z,59.13
2018-04-30T04:01:49.318Z,59.43
2018-04-30T04:04:15.249Z,59.88
2018-04-30T04:06:41.192Z,59.45
2018-04-30T04:09:07.131Z,58.86
2018-04-30T04:11:33.053Z,58.65
2018-04-30T04:13:59.015Z,58.95
2018-04-30T04:16:24.963Z,59.19
2018-04-30T04:18:50.926Z,59.19
2018-04-30T04:21:16.907Z,60.21
2018-04-30T04:23:42.837Z,59.81
2018-04-30T04:26:08.789Z,59.15
2018-04-30T04:28:34.737Z,59.24
2018-04-30T04:31:00.689Z,59.53
2018-04-30T04:33:26.607Z,59.27
2018-04-30T04:35:52.558Z,59.32
2018-04-30T04:38:18.497Z,59.13
2018-04-30T04:40:44.462Z,59.27
2018-04-30T04:43:10.376Z,58.89
2018-04-30T04:48:08.626Z,58.07
2018-04-30T04:50:34.629Z,58.12
2018-04-30T04:53:00.563Z,58.06
2018-04-30T04:55:26.501Z,57.80
2018-04-30T04:57:52.425Z,57.84
2018-04-30T05:00:18.365Z,57.38
2018-04-30T05:02:44.331Z,57.23
2018-04-30T05:05:10.288Z,57.45
2018-04-30T05:07:36.230Z,57.36
2018-04-30T05:10:02.174Z,57.40
2018-04-30T05:12:28.127Z,57.48
2018-04-30T05:14:54.069Z,57.68
2018-04-30T05:17:20.009Z,57.79
2018-04-30T05:19:45.953Z,58.02
2018-04-30T05:22:11.898Z,57.87
2018-04-30T05:24:37.841Z,57.90
2018-04-30T05:27:03.765Z,57.79
2018-04-30T05:29:29.721Z,57.79
2018-04-30T05:31:55.642Z,57.71
2018-04-30T05:34:21.560Z,57.81
2018-04-30T05:36:47.496Z,57.65
2018-04-30T05:39:13.475Z,57.40
2018-04-30T05:41:39.409Z,57.25
2018-04-30T05:44:05.343Z,56.89
2018-04-30T05:46:31.351Z,56.76
2018-04-30T05:48:57.303Z,56.66
2018-04-30T05:51:23.224Z,56.34
2018-04-30T05:53:49.176Z,56.31
2018-04-30T05:56:15.122Z,56.39
2018-04-30T05:58:41.056Z,56.19
2018-04-30T06:01:07.059Z,56.10
2018-04-30T06:03:33.009Z,56.04
2018-04-30T06:05:58.966Z,55.94
2018-04-30T06:08:24.917Z,55.74
2018-04-30T06:10:50.889Z,56.02
2018-04-30T06:13:16.830Z,56.35
2018-04-30T06:15:42.822Z,56.28
2018-04-30T06:18:08.763Z,55.96
2018-04-30T06:20:34.738Z,55.80
2018-04-30T06:23:00.699Z,55.79
2018-04-30T06:25:26.672Z,55.29
2018-04-30T06:27:52.605Z,55.19
2018-04-30T06:30:18.559Z,54.95
2018-04-30T06:32:44.509Z,55.15
2018-04-30T06:35:10.480Z,55.11
2018-04-30T06:37:36.434Z,54.87
2018-04-30T06:40:02.401Z,54.70
2018-04-30T06:42:28.329Z,54.66
2018-04-30T06:44:54.267Z,54.42
2018-04-30T06:47:20.217Z,54.35
2018-04-30T06:49:46.155Z,54.10
2018-04-30T06:52:12.116Z,54.30
2018-04-30T06:54:38.045Z,54.26
2018-04-30T06:57:05.042Z,53.82
2018-04-30T06:59:31.018Z,53.92
2018-04-30T07:01:56.933Z,53.40
2018-04-30T07:04:22.863Z,55.02
2018-04-30T07:06:48.796Z,54.33
2018-04-30T07:09:14.851Z,53.65
2018-04-30T07:11:40.720Z,53.24
2018-04-30T07:14:06.656Z,53.46
2018-04-30T07:16:32.594Z,53.15
2018-04-30T07:18:58.521Z,52.86
2018-04-30T07:21:24.500Z,52.61
2018-04-30T07:23:50.444Z,52.30
2018-04-30T07:26:16.406Z,52.26
2018-04-30T07:28:42.339Z,52.08
2018-04-30T07:31:08.295Z,51.71
2018-04-30T07:33:34.243Z,50.97
2018-04-30T07:36:00.191Z,51.62
2018-04-30T07:38:26.117Z,51.93
2018-04-30T07:40:52.080Z,50.50
2018-04-30T07:43:18.017Z,49.42
2018-04-30T07:45:43.961Z,48.41
2018-04-30T07:48:09.989Z,49.11
2018-04-30T07:50:35.924Z,48.46
2018-04-30T07:53:01.876Z,49.07
2018-04-30T07:55:27.889Z,50.41
2018-04-30T07:57:53.843Z,50.38
2018-04-30T08:00:19.780Z,47.03
2018-04-30T08:02:45.748Z,49.16
2018-04-30T08:05:11.697Z,47.95
2018-04-30T08:07:37.650Z,46.19
2018-04-30T08:10:03.602Z,46.85
2018-04-30T08:12:29.549Z,47.28
2018-04-30T08:14:55.528Z,47.64
2018-04-30T08:17:21.469Z,48.18
2018-04-30T08:19:47.415Z,46.88
2018-04-30T08:22:13.372Z,45.80
2018-04-30T08:24:39.330Z,46.46
2018-04-30T08:27:05.278Z,48.28
2018-04-30T08:29:31.279Z,47.16
2018-04-30T08:31:57.178Z,47.50
2018-04-30T08:34:23.135Z,48.50
2018-04-30T08:36:49.093Z,48.40
2018-04-30T08:39:15.034Z,48.35
2018-04-30T08:41:41.119Z,48.91
2018-04-30T08:44:07.045Z,49.04
2018-04-30T08:46:33.023Z,48.01
2018-04-30T08:48:58.974Z,47.74
2018-04-30T08:51:24.945Z,47.85
2018-04-30T08:53:50.888Z,48.23
2018-04-30T08:56:16.846Z,48.94
2018-04-30T08:58:42.782Z,48.72
2018-04-30T09:01:08.733Z,47.90
2018-04-30T09:03:34.684Z,47.13
2018-04-30T09:06:00.606Z,46.69
2018-04-30T09:08:26.572Z,48.38
2018-04-30T09:10:52.491Z,47.73
2018-04-30T09:13:18.438Z,48.14
2018-04-30T09:25:54.763Z,45.85
2018-04-30T09:28:20.750Z,47.03
2018-04-30T09:30:46.800Z,47.16
2018-04-30T09:33:12.754Z,46.87
2018-04-30T09:35:38.682Z,46.75
2018-04-30T09:38:04.622Z,47.19
2018-04-30T09:40:30.558Z,46.52
2018-04-30T09:42:56.548Z,44.44
2018-04-30T09:45:22.516Z,46.33
2018-04-30T09:47:48.492Z,43.94
2018-04-30T09:50:14.429Z,44.13
2018-04-30T09:52:40.414Z,45.59
2018-04-30T09:55:06.375Z,45.57
2018-04-30T09:57:32.338Z,43.22
2018-04-30T09:59:58.292Z,45.69
2018-04-30T10:02:24.258Z,43.76
2018-04-30T10:04:50.188Z,42.38
2018-04-30T10:07:16.134Z,43.70
2018-04-30T10:09:42.112Z,41.51
2018-04-30T10:12:08.275Z,43.79
2018-04-30T10:14:34.200Z,43.17
2018-04-30T10:17:00.197Z,43.81
2018-04-30T10:19:26.153Z,44.48
2018-04-30T10:21:52.118Z,44.19
2018-04-30T10:24:18.089Z,44.56
2018-04-30T10:26:44.014Z,44.13
2018-04-30T10:29:10.031Z,44.22
2018-04-30T10:31:35.978Z,42.07
2018-04-30T10:34:01.926Z,42.06
2018-04-30T10:36:27.873Z,41.97
2018-04-30T10:38:53.827Z,41.31
2018-04-30T10:41:19.773Z,43.78
2018-04-30T10:43:45.702Z,43.37
2018-04-30T10:46:11.671Z,40.63
2018-04-30T10:48:37.666Z,41.81
2018-04-30T10:51:03.618Z,42.91
2018-04-30T10:53:29.595Z,42.47
2018-04-30T10:55:55.583Z,42.73
2018-04-30T10:58:21.574Z,42.66
2018-04-30T11:00:47.535Z,41.56
2018-04-30T11:03:13.496Z,43.00
2018-04-30T11:05:39.473Z,39.85
2018-04-30T11:08:05.512Z,40.96
2018-04-30T11:10:31.527Z,38.68
2018-04-30T11:12:57.585Z,40.02
2018-04-30T11:15:23.563Z,38.96
2018-04-30T11:17:50.300Z,40.00
2018-04-30T11:20:16.290Z,38.74
2018-04-30T11:22:42.347Z,37.22
2018-04-30T11:25:08.315Z,37.80
2018-04-30T11:27:35.091Z,37.51
2018-04-30T11:30:01.015Z,38.65
2018-04-30T11:32:27.101Z,39.98
2018-04-30T11:34:53.092Z,37.24
2018-04-30T11:37:19.058Z,38.93
2018-04-30T11:39:45.076Z,40.95
2018-04-30T11:42:11.125Z,38.27
2018-04-30T11:44:37.095Z,37.01
2018-04-30T11:47:03.130Z,38.54
2018-04-30T11:49:29.045Z,39.05
2018-04-30T11:51:55.050Z,38.17
2018-04-30T11:54:21.148Z,39.01
2018-04-30T11:59:19.087Z,39.87
2018-04-30T12:01:45.044Z,39.80
2018-04-30T12:04:11.038Z,37.06
2018-04-30T12:06:37.071Z,40.19
2018-04-30T12:09:03.050Z,38.34
2018-04-30T12:11:29.009Z,39.68
2018-04-30T12:13:55.019Z,39.69
2018-04-30T12:16:20.956Z,40.26
2018-04-30T12:18:46.908Z,40.54
2018-04-30T12:21:12.878Z,40.83
2018-04-30T12:23:38.829Z,41.37
2018-04-30T12:26:04.765Z,41.34
2018-04-30T12:28:30.740Z,41.58
2018-04-30T12:30:56.738Z,40.99
2018-04-30T12:33:22.749Z,38.67
2018-04-30T12:35:48.705Z,40.32
2018-04-30T12:38:14.711Z,40.02
2018-04-30T12:40:40.676Z,40.82
2018-04-30T12:43:06.658Z,37.24
2018-04-30T12:45:32.663Z,38.93
2018-04-30T12:47:58.617Z,37.93
2018-04-30T12:50:24.566Z,37.29
2018-04-30T12:52:50.521Z,37.50
2018-04-30T12:55:16.468Z,37.72
2018-04-30T12:57:42.458Z,37.31
2018-04-30T13:00:08.469Z,36.65
2018-04-30T13:02:34.443Z,36.54
2018-04-30T13:05:00.415Z,36.97
2018-04-30T13:07:26.373Z,36.26
2018-04-30T13:09:52.321Z,37.06
2018-04-30T13:12:18.317Z,36.71
2018-04-30T13:14:44.273Z,36.07
2018-04-30T13:17:10.243Z,36.78
2018-04-30T13:19:36.193Z,36.51
2018-04-30T13:22:02.132Z,37.09
2018-04-30T13:24:28.101Z,36.09
2018-04-30T13:26:54.048Z,36.22
2018-04-30T13:29:19.997Z,35.17
2018-04-30T13:31:45.954Z,35.57
2018-04-30T13:34:11.964Z,34.71
2018-04-30T13:36:40.039Z,34.91
2018-04-30T13:39:06.018Z,35.25
2018-04-30T13:41:31.950Z,34.50
2018-04-30T13:43:57.879Z,35.06
2018-04-30T13:46:23.878Z,36.88
2018-04-30T13:48:49.841Z,35.68
2018-04-30T13:51:15.781Z,35.84
2018-04-30T13:53:41.755Z,37.71
2018-04-30T13:56:07.700Z,36.86
2018-04-30T13:58:33.652Z,37.71
2018-04-30T14:00:59.601Z,37.57
2018-04-30T14:03:25.554Z,36.58
2018-04-30T14:05:51.482Z,37.53
2018-04-30T14:08:17.425Z,38.54
2018-04-30T14:10:43.385Z,36.92
2018-04-30T14:13:09.344Z,37.73
2018-04-30T14:18:07.690Z,38.69
2018-04-30T14:20:37.781Z,36.47
2018-04-30T14:23:03.737Z,37.63
2018-04-30T14:25:29.671Z,37.02
2018-04-30T14:27:55.741Z,38.71
2018-04-30T14:30:21.646Z,38.22
2018-04-30T14:32:47.588Z,38.99
2018-04-30T14:35:13.544Z,37.79
2018-04-30T14:37:39.470Z,35.81
2018-04-30T14:40:05.453Z,37.79
2018-04-30T14:42:31.409Z,37.19
2018-04-30T14:44:57.365Z,38.33
2018-04-30T14:47:23.341Z,37.73
2018-04-30T14:49:49.275Z,37.43
2018-04-30T14:52:15.200Z,37.49
2018-04-30T14:54:41.150Z,37.11
2018-04-30T14:57:07.138Z,38.10
2018-04-30T14:59:33.114Z,37.74
2018-04-30T15:01:59.074Z,35.79
2018-04-30T15:04:25.052Z,36.88
2018-04-30T15:06:51.071Z,33.75
2018-04-30T15:09:17.047Z,35.17
2018-04-30T15:11:43.012Z,36.17
2018-04-30T15:14:08.974Z,35.80
2018-04-30T15:16:34.934Z,35.52
2018-04-30T15:19:00.935Z,35.01
2018-04-30T15:21:27.055Z,34.63
2018-04-30T15:23:53.007Z,34.84
2018-04-30T15:26:18.943Z,36.39
2018-04-30T15:28:44.916Z,34.81
2018-04-30T15:31:10.886Z,36.87
2018-04-30T15:33:36.881Z,36.95
2018-04-30T15:36:02.875Z,33.31
2018-04-30T15:38:28.808Z,36.15
2018-04-30T15:40:54.769Z,35.19
2018-04-30T15:43:20.738Z,34.62
2018-04-30T15:45:46.737Z,34.71
2018-04-30T15:48:12.725Z,34.68
2018-04-30T15:50:38.744Z,36.35
2018-04-30T15:53:04.706Z,36.05
2018-04-30T15:55:30.684Z,36.78
2018-04-30T15:57:56.678Z,36.93
2018-04-30T16:00:22.682Z,35.37
2018-04-30T16:02:48.649Z,36.88
2018-04-30T16:05:14.580Z,37.15
2018-04-30T16:07:40.571Z,37.35
2018-04-30T16:10:06.570Z,36.36
2018-04-30T16:12:32.534Z,37.05
2018-04-30T16:14:58.513Z,37.31
2018-04-30T16:17:24.455Z,37.34
2018-04-30T16:19:50.391Z,35.94
2018-04-30T16:22:16.381Z,36.52
2018-04-30T16:24:42.313Z,37.86
2018-04-30T16:27:08.289Z,36.86
2018-04-30T16:29:34.240Z,38.25
2018-04-30T16:32:00.248Z,38.28
2018-04-30T16:34:26.218Z,36.20
2018-04-30T16:36:52.235Z,38.01
2018-04-30T16:39:18.196Z,38.26
2018-04-30T16:41:44.150Z,37.44
2018-04-30T16:44:10.092Z,38.38
2018-04-30T16:46:36.074Z,38.45
2018-04-30T16:49:02.055Z,38.73
2018-04-30T16:51:28.033Z,38.17
2018-04-30T16:53:53.991Z,36.69
2018-04-30T16:56:19.948Z,38.59
2018-04-30T16:58:45.898Z,38.34
2018-04-30T17:01:11.897Z,39.29
2018-04-30T17:03:37.896Z,36.52
2018-04-30T17:06:04.013Z,38.61
2018-04-30T17:08:30.073Z,38.98
2018-04-30T17:44:39.504Z,39.39
2018-04-30T17:47:05.496Z,39.19
2018-04-30T17:49:31.448Z,39.34
2018-04-30T17:51:57.530Z,38.89
2018-04-30T17:54:23.465Z,37.78
2018-04-30T17:56:49.429Z,34.37
2018-04-30T17:59:15.395Z,36.83
2018-04-30T18:01:41.364Z,33.65
2018-04-30T18:04:07.375Z,35.23
2018-04-30T18:06:33.317Z,34.19
2018-04-30T18:08:59.309Z,35.58
2018-04-30T18:11:25.277Z,35.78
2018-04-30T18:13:51.238Z,34.84
2018-04-30T18:16:17.230Z,36.11
2018-04-30T18:18:43.189Z,36.70
2018-04-30T18:21:09.191Z,36.91
2018-04-30T18:23:35.254Z,36.63
2018-04-30T18:26:01.374Z,37.48
2018-04-30T18:28:27.425Z,37.93
2018-04-30T18:30:53.583Z,38.57
2018-04-30T18:33:20.717Z,38.81
2018-04-30T18:35:46.615Z,39.98
2018-04-30T18:38:12.824Z,40.83
2018-04-30T18:40:38.765Z,40.99
2018-04-30T18:43:04.929Z,41.48
2018-04-30T18:45:31.128Z,41.34
2018-04-30T18:47:57.127Z,40.99
2018-04-30T18:50:23.056Z,40.57
2018-04-30T18:52:49.001Z,40.38
2018-04-30T18:55:15.008Z,41.07
2018-04-30T18:57:40.965Z,41.86
2018-04-30T19:00:06.955Z,42.15
2018-04-30T19:02:32.978Z,42.21
2018-04-30T19:04:58.920Z,43.10
2018-04-30T19:07:24.874Z,42.60
2018-04-30T19:09:50.814Z,43.00
2018-04-30T19:12:16.843Z,42.75
2018-04-30T19:14:42.845Z,43.27
2018-04-30T19:17:08.816Z,41.93
2018-04-30T19:19:34.846Z,42.48
2018-04-30T19:22:00.817Z,41.79
2018-04-30T19:24:26.762Z,41.69
2018-04-30T19:26:52.705Z,41.35
2018-04-30T19:29:18.645Z,42.09
2018-04-30T19:31:44.681Z,42.12
2018-04-30T19:34:10.683Z,42.40
2018-04-30T19:36:36.669Z,43.86
2018-04-30T19:39:02.668Z,44.08
2018-04-30T19:41:28.644Z,44.10
2018-04-30T19:43:54.610Z,43.69
2018-04-30T19:46:20.578Z,43.93
2018-04-30T19:48:46.561Z,43.07
2018-04-30T19:51:12.496Z,43.08
2018-04-30T19:53:38.420Z,42.98
2018-04-30T19:56:04.446Z,43.27
2018-04-30T19:58:30.417Z,43.10
2018-04-30T20:00:56.373Z,42.77
2018-04-30T20:03:22.335Z,42.81
2018-04-30T20:05:49.300Z,42.44
2018-04-30T20:08:15.269Z,42.48
2018-04-30T20:10:41.217Z,42.46
2018-04-30T20:13:07.214Z,43.05
2018-04-30T20:15:33.164Z,43.54
2018-04-30T20:17:59.341Z,43.50
2018-04-30T20:20:25.418Z,44.76
2018-04-30T20:22:51.411Z,44.35
2018-04-30T20:25:17.508Z,43.94
2018-04-30T20:32:45.964Z,44.68
2018-04-30T20:35:11.949Z,44.59
2018-04-30T20:37:37.979Z,43.31
2018-04-30T20:40:03.960Z,43.95
2018-04-30T20:42:29.952Z,44.30
2018-04-30T20:44:55.997Z,44.89
2018-04-30T20:47:21.945Z,44.66
2018-04-30T20:49:47.962Z,45.58
2018-04-30T20:52:13.931Z,45.96
2018-04-30T20:54:39.916Z,46.11
2018-04-30T20:57:05.886Z,46.54
2018-04-30T20:59:31.851Z,46.45
2018-04-30T21:01:57.803Z,46.23
2018-04-30T21:04:23.745Z,44.91
2018-04-30T21:06:49.700Z,46.88
2018-04-30T21:09:15.677Z,47.27
2018-04-30T21:11:41.641Z,48.04
2018-04-30T21:14:07.644Z,47.04
2018-04-30T21:16:33.616Z,47.68
2018-04-30T21:18:59.583Z,48.53
2018-04-30T21:21:25.645Z,48.78
2018-04-30T21:23:51.526Z,48.52
2018-04-30T21:26:17.475Z,47.10
2018-04-30T21:28:43.450Z,48.49
2018-04-30T21:31:09.397Z,47.83
2018-04-30T21:33:35.401Z,46.55
2018-04-30T21:36:01.383Z,47.47
2018-04-30T21:38:27.335Z,47.12
2018-04-30T21:40:53.286Z,47.82
2018-04-30T21:43:19.236Z,46.58
2018-04-30T21:45:45.187Z,47.05
2018-04-30T21:48:11.168Z,46.23
2018-04-30T21:50:37.208Z,46.33
2018-04-30T21:53:03.146Z,46.74
2018-04-30T21:55:29.127Z,47.18
2018-04-30T21:57:55.084Z,47.72
2018-04-30T22:00:21.138Z,46.89
2018-04-30T22:02:47.184Z,47.86
2018-04-30T22:05:13.168Z,47.42
2018-04-30T22:07:39.243Z,48.65
2018-04-30T22:10:05.204Z,49.98
2018-04-30T22:12:31.196Z,49.03
2018-04-30T22:14:57.149Z,48.91
2018-04-30T22:17:23.212Z,48.79
2018-04-30T22:19:49.134Z,48.25
2018-04-30T22:22:15.070Z,47.56
2018-04-30T22:24:41.013Z,47.04
2018-04-30T22:27:06.969Z,46.77
2018-04-30T22:29:32.958Z,46.99
2018-04-30T22:31:58.903Z,47.53
2018-04-30T22:34:24.888Z,48.03
2018-04-30T22:36:50.911Z,49.17
2018-04-30T22:39:16.874Z,48.94
2018-04-30T22:41:42.853Z,47.17
2018-04-30T22:44:08.881Z,48.67
2018-04-30T22:46:34.826Z,49.42
2018-04-30T22:49:00.761Z,48.85
2018-04-30T22:51:26.739Z,49.62
2018-04-30T22:53:54.700Z,49.04
2018-04-30T22:56:20.710Z,49.10
2018-04-30T22:58:46.705Z,49.69
2018-04-30T23:01:12.620Z,49.41
2018-04-30T23:03:38.585Z,49.24
2018-04-30T23:06:04.521Z,49.60
2018-04-30T23:08:30.463Z,49.17
2018-04-30T23:10:56.454Z,48.66
2018-04-30T23:13:22.419Z,49.10
2018-04-30T23:15:48.382Z,49.36
2018-04-30T23:18:14.383Z,49.36
2018-04-30T23:20:40.325Z,48.96
2018-04-30T23:23:06.360Z,48.69
2018-04-30T23:25:32.296Z,48.31
2018-04-30T23:27:58.246Z,48.07
2018-04-30T23:30:24.186Z,48.09
2018-04-30T23:32:50.139Z,49.13
2018-04-30T23:35:16.113Z,49.79
2018-04-30T23:37:42.051Z,49.92
2018-04-30T23:40:08.047Z,50.04
2018-04-30T23:42:34.017Z,51.06
2018-04-30T23:44:59.956Z,50.24
2018-04-30T23:47:25.890Z,48.77
2018-04-30T23:49:51.858Z,47.55
2018-04-30T23:52:17.841Z,47.03
2018-04-30T23:54:43.797Z,47.34
2018-04-30T23:57:09.786Z,48.42
2018-04-30T23:59:35.776Z,47.98
